Time;durP1;ratioP1;P1;durP2;ratioP2;P2;SDS_P1;SDS_P2;PMS_P1;PMS_P2;Temp;Humidity;BMP_temperature;BMP_pressure;BME280_temperature;BME280_humidity;BME280_pressure;Samples;Min_cycle;Max_cycle;Signal;HPM_P1;HPM_P2
2023/05/26 00:00:09;;;;;;;3.23;2.80;;;14.90;99.90;;;15.26;69.21;101438.19;5012080;28;20641;-66
2023/05/26 00:02:39;;;;;;;3.33;3.03;;;14.90;99.90;;;15.24;69.78;101439.25;5028097;28;20640;-66
2023/05/26 00:05:07;;;;;;;5.53;4.00;;;14.90;99.90;;;15.20;70.00;101425.53;5025722;28;20716;-67
2023/05/26 00:07:39;;;;;;;2.90;2.70;;;14.80;99.90;;;15.18;69.48;101430.03;5021993;28;20624;-67
2023/05/26 00:10:09;;;;;;;6.90;4.47;;;14.80;99.90;;;15.18;69.68;101432.66;5026789;28;21231;-67
2023/05/26 00:12:37;;;;;;;5.80;3.20;;;14.80;99.90;;;15.17;69.39;101441.53;5026256;28;20638;-67
2023/05/26 00:15:05;;;;;;;4.80;3.57;;;14.80;99.90;;;15.13;69.29;101434.00;5022726;28;20701;-67
2023/05/26 00:17:32;;;;;;;7.20;3.67;;;14.80;99.90;;;15.07;69.75;101435.31;5025888;28;20630;-68
2023/05/26 00:20:00;;;;;;;4.13;3.40;;;14.70;99.90;;;15.07;69.61;101432.69;5022638;28;20713;-67
2023/05/26 00:22:27;;;;;;;5.80;4.00;;;14.70;99.90;;;15.01;69.77;101435.78;5015291;28;20691;-64
2023/05/26 00:24:55;;;;;;;4.90;3.60;;;14.70;99.90;;;14.94;70.36;101439.00;5013967;28;20669;-66
2023/05/26 00:27:22;;;;;;;6.50;3.13;;;14.60;99.90;;;14.88;70.54;101436.84;5023535;28;21054;-66
2023/05/26 00:29:49;;;;;;;5.87;4.10;;;14.50;99.90;;;14.86;70.69;101442.22;5026581;28;20644;-67
2023/05/26 00:32:17;;;;;;;3.73;3.37;;;14.50;99.90;;;14.83;70.63;101446.88;5028638;28;20707;-68
2023/05/26 00:34:43;;;;;;;4.23;3.80;;;14.50;99.90;;;14.83;70.76;101445.09;5021878;28;20833;-67
2023/05/26 00:37:10;;;;;;;6.40;4.07;;;14.50;99.90;;;14.82;70.38;101450.47;5016479;28;21192;-67
2023/05/26 00:39:37;;;;;;;8.40;4.77;;;14.50;99.90;;;14.76;70.57;101439.47;5026166;28;21096;-67
2023/05/26 00:42:05;;;;;;;3.93;3.60;;;14.40;99.90;;;14.76;70.93;101438.63;5011691;28;20636;-67
2023/05/26 00:44:32;;;;;;;7.30;4.90;;;14.40;99.90;;;14.73;70.96;101441.50;5018904;28;21306;-66
2023/05/26 00:46:59;;;;;;;9.10;4.53;;;14.40;99.90;;;14.66;71.06;101437.66;5030059;28;21222;-67
2023/05/26 00:49:26;;;;;;;3.27;2.90;;;14.30;99.90;;;14.61;71.22;101445.03;5022665;28;21041;-66
2023/05/26 00:51:53;;;;;;;5.50;3.10;;;14.20;99.90;;;14.59;71.57;101449.56;5030329;28;20632;-67
2023/05/26 00:54:20;;;;;;;4.13;2.80;;;14.20;99.90;;;14.57;71.93;101447.06;5014942;28;20716;-67
2023/05/26 00:56:48;;;;;;;3.70;2.87;;;14.20;99.90;;;14.56;71.24;101441.94;5011330;28;20712;-67
2023/05/26 00:59:16;;;;;;;6.90;3.67;;;14.20;99.90;;;14.54;71.46;101436.81;5010363;28;20751;-66
2023/05/26 01:01:43;;;;;;;4.97;2.90;;;14.20;99.90;;;14.51;72.03;101446.69;5032129;28;20650;-67
2023/05/26 01:04:10;;;;;;;4.17;3.00;;;14.20;99.90;;;14.47;71.80;101429.50;5029130;28;20665;-67
2023/05/26 01:06:38;;;;;;;7.93;3.97;;;14.10;99.90;;;14.41;71.88;101430.81;5011986;28;20719;-67
2023/05/26 01:09:05;;;;;;;4.33;3.00;;;14.10;99.90;;;14.44;72.06;101435.81;5024396;28;20655;-68
2023/05/26 01:11:37;;;;;;;7.13;3.87;;;14.10;99.90;;;14.44;71.88;101429.72;5024191;28;20633;-66
2023/05/26 01:14:13;;;;;;;4.53;4.10;;;14.10;99.90;;;14.39;71.94;101439.75;5010927;28;20701;-66
2023/05/26 01:16:51;;;;;;;3.67;2.47;;;14.10;99.90;;;14.32;72.43;101425.41;5009552;28;20609;-66
2023/05/26 01:19:59;;;;;;;4.47;3.53;;;14.00;99.90;;;14.32;72.36;101433.28;5018812;28;20711;-67
2023/05/26 01:22:50;;;;;;;7.00;3.90;;;14.00;99.90;;;14.30;72.39;101435.19;5043654;28;20640;-67
2023/05/26 01:25:33;;;;;;;5.47;3.77;;;13.90;99.90;;;14.27;72.34;101435.41;5042053;28;20667;-68
2023/05/26 01:28:09;;;;;;;5.93;3.63;;;13.90;99.90;;;14.26;72.72;101433.72;5029237;28;20992;-67
2023/05/26 01:30:38;;;;;;;2.90;2.50;;;13.90;99.90;;;14.21;72.95;101434.03;5010924;28;20676;-67
2023/05/26 01:33:05;;;;;;;3.63;2.40;;;13.90;99.90;;;14.21;72.74;101443.69;5008334;28;20633;-66
2023/05/26 01:35:32;;;;;;;4.30;3.30;;;13.80;99.90;;;14.19;72.93;101440.34;5013894;28;20633;-67
2023/05/26 01:38:00;;;;;;;5.57;4.00;;;13.80;99.90;;;14.15;72.71;101431.03;5027170;28;21188;-68
2023/05/26 01:40:29;;;;;;;6.53;4.23;;;13.80;99.90;;;14.17;72.87;101434.38;5010910;28;20649;-68
2023/05/26 01:43:26;;;;;;;5.20;4.10;;;13.80;99.90;;;14.11;73.01;101437.47;5014589;28;20637;-67
2023/05/26 01:46:08;;;;;;;6.93;4.67;;;13.80;99.90;;;13.99;73.40;101431.34;5030097;28;20666;-67
2023/05/26 01:48:39;;;;;;;3.73;3.40;;;13.70;99.90;;;13.97;73.61;101422.72;5024262;28;20643;-69
2023/05/26 01:51:06;;;;;;;6.60;5.00;;;13.60;99.90;;;14.00;73.47;101441.72;5008871;28;20634;-67
2023/05/26 01:53:38;;;;;;;4.67;4.20;;;13.70;99.90;;;13.99;73.43;101433.97;5018617;28;20635;-67
2023/05/26 01:56:07;;;;;;;3.43;3.13;;;13.70;99.90;;;13.95;73.63;101433.34;5009332;28;20693;-67
2023/05/26 01:58:34;;;;;;;5.50;4.70;;;13.60;99.90;;;13.89;73.88;101430.31;5009194;28;20645;-69
2023/05/26 02:01:03;;;;;;;6.00;2.60;;;13.60;99.90;;;13.87;73.99;101437.47;5024998;28;21501;-67
2023/05/26 02:03:30;;;;;;;3.70;2.93;;;13.60;99.90;;;13.82;74.13;101440.44;5024685;28;20676;-67
2023/05/26 02:05:58;;;;;;;5.10;4.20;;;13.50;99.90;;;13.77;74.06;101437.31;5030914;28;20749;-70
2023/05/26 02:08:25;;;;;;;6.17;4.47;;;13.50;99.90;;;13.78;74.46;101430.25;5025683;28;20844;-66
2023/05/26 02:10:52;;;;;;;4.53;3.73;;;13.50;99.90;;;13.76;74.86;101435.63;5026398;28;21097;-68
2023/05/26 02:13:19;;;;;;;5.07;3.60;;;13.50;99.90;;;13.78;74.19;101438.13;5012179;28;20629;-67
2023/05/26 02:15:46;;;;;;;6.90;3.70;;;13.50;99.90;;;13.75;74.34;101436.59;5020392;28;20704;-68
2023/05/26 02:18:15;;;;;;;3.73;3.20;;;13.40;99.90;;;13.73;74.52;101438.50;5028069;28;20612;-67
2023/05/26 02:20:42;;;;;;;2.53;2.33;;;13.40;99.90;;;13.73;74.76;101435.88;5023803;28;20693;-67
2023/05/26 02:23:09;;;;;;;4.50;4.07;;;13.40;99.90;;;13.70;75.31;101432.59;5024173;28;20608;-66
2023/05/26 02:25:36;;;;;;;5.80;4.30;;;13.40;99.90;;;13.65;75.05;101427.69;5016750;28;21021;-69
2023/05/26 02:28:03;;;;;;;5.03;3.60;;;13.30;99.90;;;13.63;75.25;101432.22;5026868;28;20624;-66
2023/05/26 02:30:30;;;;;;;4.63;4.23;;;13.30;99.90;;;13.64;74.77;101422.56;5029496;28;20652;-66
2023/05/26 02:32:57;;;;;;;5.30;3.80;;;13.40;99.90;;;13.65;75.12;101416.38;5026758;28;20637;-67
2023/05/26 02:35:24;;;;;;;3.93;3.50;;;13.30;99.90;;;13.64;74.95;101423.41;5015783;28;20723;-66
2023/05/26 02:37:51;;;;;;;8.50;4.40;;;13.30;99.90;;;13.64;74.88;101435.69;5031476;28;21207;-67
2023/05/26 02:40:18;;;;;;;7.13;4.37;;;13.30;99.90;;;13.57;75.29;101421.31;5014656;28;20661;-68
2023/05/26 02:42:45;;;;;;;5.50;3.80;;;13.30;99.90;;;13.52;nan;101419.03;5017423;28;21260;-68
2023/05/26 02:45:12;;;;;;;8.30;4.20;;;13.20;99.90;;;13.54;nan;101422.41;5032347;28;20640;-68
2023/05/26 02:47:39;;;;;;;4.57;3.80;;;13.20;99.90;;;13.49;nan;101423.66;5030903;28;20631;-69
2023/05/26 02:50:07;;;;;;;6.77;4.57;;;13.20;99.90;;;13.46;nan;101419.47;5017900;28;20718;-66
2023/05/26 02:52:34;;;;;;;4.87;3.87;;;13.10;99.90;;;13.43;nan;101424.09;5013377;28;20620;-66
2023/05/26 02:55:01;;;;;;;4.53;3.00;;;13.20;99.90;;;13.44;nan;101424.00;5015609;28;20638;-66
2023/05/26 02:57:28;;;;;;;5.20;4.20;;;13.10;99.90;;;13.40;nan;101414.66;5011268;28;20651;-68
2023/05/26 02:59:57;;;;;;;5.40;3.80;;;13.10;99.90;;;13.42;nan;101415.41;5012331;28;20660;-66
2023/05/26 03:02:23;;;;;;;5.73;3.47;;;13.10;99.90;;;13.37;nan;101422.78;5012729;28;20652;-66
2023/05/26 03:04:50;;;;;;;5.77;3.90;;;13.10;99.90;;;13.31;nan;101420.56;5032960;28;21066;-66
2023/05/26 03:07:17;;;;;;;5.17;4.20;;;13.00;99.90;;;13.34;nan;101417.75;5018052;28;20711;-67
2023/05/26 03:09:44;;;;;;;5.43;4.03;;;13.00;99.90;;;13.24;nan;101417.53;5019254;28;20652;-64
2023/05/26 03:12:15;;;;;;;5.97;4.80;;;13.00;99.90;;;13.21;nan;101425.63;5018394;28;20641;-66
2023/05/26 03:14:42;;;;;;;3.80;3.43;;;12.90;99.90;;;13.21;nan;101424.78;5012668;28;20644;-66
2023/05/26 03:17:10;;;;;;;5.00;3.67;;;12.90;99.90;;;13.19;nan;101424.06;5018287;28;21076;-67
2023/05/26 03:19:37;;;;;;;5.37;4.40;;;12.90;99.90;;;13.11;nan;101421.16;5018328;28;20659;-69
2023/05/26 03:22:05;;;;;;;5.80;4.77;;;12.80;99.90;;;13.00;nan;101418.41;5020494;28;20644;-68
2023/05/26 03:24:52;;;;;;;7.70;4.90;;;12.70;99.90;;;13.00;nan;101415.78;5015026;28;20649;-67
2023/05/26 03:27:23;;;;;;;5.53;4.70;;;12.70;99.90;;;13.00;nan;101418.41;5022356;28;20635;-67
2023/05/26 03:29:50;;;;;;;9.03;3.53;;;12.70;99.90;;;13.01;nan;101422.69;5011362;28;20653;-66
2023/05/26 03:32:20;;;;;;;6.70;4.00;;;12.70;99.90;;;13.01;nan;101422.69;5010250;28;20641;-68
2023/05/26 03:34:50;;;;;;;4.60;3.63;;;12.70;99.90;;;12.97;nan;101421.22;5010876;28;21227;-67
2023/05/26 03:37:20;;;;;;;4.10;2.50;;;12.70;99.90;;;12.99;nan;101425.41;5019690;28;21200;-69
2023/05/26 03:39:54;;;;;;;6.50;5.00;;;12.70;99.90;;;12.99;nan;101408.88;5010900;28;20703;-67
2023/05/26 03:42:23;;;;;;;6.90;5.80;;;12.70;99.90;;;13.01;nan;101407.81;5009367;28;20695;-67
2023/05/26 03:44:50;;;;;;;6.40;4.20;;;12.70;99.90;;;12.99;nan;101429.84;5030768;28;20652;-66
2023/05/26 03:47:18;;;;;;;6.20;5.13;;;12.70;99.90;;;12.95;nan;101417.88;5024975;28;21530;-65
2023/05/26 03:49:46;;;;;;;7.13;4.37;;;12.70;99.90;;;12.99;nan;101429.84;5019214;28;20668;-67
2023/05/26 03:52:15;;;;;;;5.47;4.40;;;12.70;99.90;;;13.02;nan;101424.38;5027306;28;20647;-68
2023/05/26 03:54:42;;;;;;;7.13;5.30;;;12.70;99.90;;;13.03;nan;101423.44;5012397;28;20972;-71
2023/05/26 03:57:09;;;;;;;10.10;5.47;;;12.80;99.90;;;13.05;nan;101429.44;5028409;28;20624;-65
2023/05/26 03:59:36;;;;;;;5.53;4.60;;;12.80;99.90;;;13.12;nan;101428.03;5015248;28;20657;-70
2023/05/26 04:02:06;;;;;;;7.60;4.83;;;12.80;99.90;;;13.23;nan;101430.75;5011441;28;20652;-67
2023/05/26 04:04:34;;;;;;;6.53;4.67;;;12.90;99.90;;;13.26;nan;101424.47;5012005;28;20621;-66
2023/05/26 04:07:03;;;;;;;6.13;5.07;;;13.00;99.90;;;13.37;nan;101430.63;5037864;28;20985;-67
2023/05/26 04:09:31;;;;;;;7.60;4.80;;;13.00;99.90;;;13.49;nan;101434.16;5021296;28;20654;-65
2023/05/26 04:11:58;;;;;;;6.30;4.73;;;13.20;99.90;;;13.52;nan;101436.56;5023855;28;21086;-68
2023/05/26 04:14:25;;;;;;;7.80;5.20;;;13.20;99.90;;;13.55;nan;101444.19;5022735;28;21176;-68
2023/05/26 04:16:52;;;;;;;3.77;3.40;;;13.20;99.90;;;13.60;nan;101435.06;5010269;28;20641;-72
2023/05/26 04:19:19;;;;;;;4.63;3.93;;;13.30;99.90;;;13.66;nan;101442.50;5010569;28;20692;-68
2023/05/26 04:21:46;;;;;;;5.27;4.20;;;13.40;99.90;;;13.72;nan;101436.81;5029634;28;20624;-68
2023/05/26 04:24:13;;;;;;;5.17;3.73;;;13.40;99.90;;;13.88;nan;101442.59;5027445;28;20620;-67
2023/05/26 04:26:40;;;;;;;6.57;3.67;;;13.60;99.90;;;13.92;nan;101444.06;5020884;28;21034;-67
2023/05/26 04:29:07;;;;;;;4.43;3.93;;;13.60;99.90;;;14.03;nan;101435.41;5030220;28;20656;-67
2023/05/26 04:31:41;;;;;;;8.10;3.33;;;13.70;99.90;;;14.16;nan;101435.34;5016734;28;20647;-67
2023/05/26 04:34:10;;;;;;;6.93;4.73;;;13.80;99.90;;;14.34;nan;101436.63;5022175;28;20686;-66
2023/05/26 04:36:39;;;;;;;8.80;4.93;;;14.00;99.90;;;14.51;nan;101434.41;5018786;28;20629;-67
2023/05/26 04:39:06;;;;;;;6.43;4.80;;;14.20;99.90;;;14.65;nan;101447.31;5020007;28;21076;-69
2023/05/26 04:41:33;;;;;;;6.80;4.40;;;14.30;99.90;;;14.78;nan;101447.22;5017640;28;20621;-68
2023/05/26 04:44:01;;;;;;;9.00;5.40;;;14.50;99.90;;;14.94;nan;101447.72;5011457;28;20660;-67
2023/05/26 04:46:30;;;;;;;6.73;4.30;;;14.60;99.90;;;15.09;nan;101453.59;5033761;28;20668;-68
2023/05/26 04:48:57;;;;;;;7.73;4.67;;;14.80;99.90;;;15.26;nan;101459.22;5038149;28;20708;-71
2023/05/26 04:51:24;;;;;;;4.73;4.13;;;14.90;99.90;;;15.42;nan;101456.19;5008765;28;20645;-67
2023/05/26 04:53:51;;;;;;;7.17;4.70;;;15.10;99.90;;;15.57;nan;101443.69;5030030;28;20619;-69
2023/05/26 04:56:18;;;;;;;5.80;4.30;;;15.20;99.90;;;15.71;nan;101448.66;5024505;28;20637;-68
2023/05/26 04:58:45;;;;;;;4.07;3.70;;;15.40;99.90;;;15.88;nan;101448.97;5012805;28;20644;-68
2023/05/26 05:01:13;;;;;;;7.57;4.83;;;15.60;99.90;;;16.04;nan;101459.06;5012646;28;20633;-67
2023/05/26 05:03:42;;;;;;;7.83;4.70;;;15.70;99.90;;;16.15;nan;101453.75;5008934;28;20990;-69
2023/05/26 05:06:13;;;;;;;4.80;3.80;;;15.80;99.90;;;16.27;nan;101458.00;5009788;28;20660;-70
2023/05/26 05:08:40;;;;;;;4.23;3.23;;;15.90;99.90;;;16.44;nan;101461.91;5018966;28;20731;-67
2023/05/26 05:11:07;;;;;;;5.60;4.10;;;16.10;99.90;;;16.50;nan;101466.69;5016195;28;20723;-67
2023/05/26 05:13:34;;;;;;;3.40;3.00;;;16.20;99.90;;;16.64;nan;101469.00;5014836;28;20628;-69
2023/05/26 05:16:01;;;;;;;6.77;4.83;;;16.30;99.90;;;16.77;nan;101465.22;5033903;28;20615;-67
2023/05/26 05:18:28;;;;;;;3.83;3.40;;;16.50;99.90;;;16.88;nan;101462.50;5020290;28;20632;-67
2023/05/26 05:20:56;;;;;;;6.20;4.50;;;16.60;99.90;;;17.06;nan;101471.47;5014048;28;20668;-69
2023/05/26 05:23:23;;;;;;;5.70;5.10;;;16.70;99.90;;;17.17;nan;101461.78;5026040;28;20671;-68
2023/05/26 05:25:50;;;;;;;9.03;3.83;;;16.90;99.90;;;17.36;nan;101472.41;5016904;28;20745;-68
2023/05/26 05:28:17;;;;;;;6.53;3.00;;;17.00;99.90;;;17.46;nan;101481.22;5007878;28;20620;-68
2023/05/26 05:30:44;;;;;;;5.47;4.10;;;17.10;99.90;;;17.44;nan;101470.78;5022010;28;20657;-71
2023/05/26 05:33:12;;;;;;;2.87;2.67;;;17.20;99.90;;;17.70;nan;101473.78;5042529;28;20637;-67
2023/05/26 05:35:39;;;;;;;8.83;4.93;;;17.40;99.90;;;17.93;nan;101469.13;5045342;28;20982;-67
2023/05/26 05:38:06;;;;;;;7.97;4.47;;;17.60;99.90;;;18.17;nan;101480.94;5023296;28;21372;-67
2023/05/26 05:40:33;;;;;;;7.77;4.70;;;17.80;99.90;;;18.32;nan;101473.44;5018639;28;20729;-67
2023/05/26 05:43:00;;;;;;;7.87;4.70;;;18.00;99.90;;;18.42;nan;101475.09;5009976;28;20662;-68
2023/05/26 05:45:28;;;;;;;8.57;4.67;;;18.10;99.90;;;18.64;nan;101481.09;5026035;28;20652;-68
2023/05/26 05:47:55;;;;;;;5.93;4.10;;;18.30;99.90;;;18.69;nan;101481.50;5022506;28;21183;-69
2023/05/26 05:50:23;;;;;;;4.33;3.20;;;18.40;99.90;;;18.72;nan;101484.69;5018378;28;20680;-65
2023/05/26 05:52:50;;;;;;;5.80;4.20;;;18.40;99.90;;;18.78;nan;101478.00;5019905;28;21206;-70
2023/05/26 05:55:17;;;;;;;2.47;1.83;;;18.50;99.90;;;19.03;nan;101487.97;5010162;28;20694;-70
2023/05/26 05:57:44;;;;;;;5.13;3.73;;;18.70;99.90;;;19.14;nan;101485.16;5011774;28;20665;-68
2023/05/26 06:00:11;;;;;;;6.53;4.00;;;18.80;99.90;;;19.42;nan;101486.03;5024430;28;20665;-72
2023/05/26 06:02:38;;;;;;;6.47;4.20;;;19.00;99.90;;;19.69;nan;101489.50;5049249;28;20646;-67
2023/05/26 06:05:06;;;;;;;5.20;4.33;;;19.30;99.90;;;19.67;nan;101491.47;5040235;28;20641;-68
2023/05/26 06:07:33;;;;;;;5.13;4.63;;;19.40;99.90;;;19.79;nan;101498.22;5012984;28;20626;-67
2023/05/26 06:10:00;;;;;;;9.27;4.73;;;19.50;99.90;;;19.96;nan;101484.19;5023466;28;20660;-67
2023/05/26 06:12:27;;;;;;;6.47;4.03;;;19.60;99.90;;;20.43;nan;101481.31;5025837;28;20636;-71
2023/05/26 06:14:54;;;;;;;6.60;5.67;;;20.00;99.90;;;20.78;nan;101491.88;5039011;28;21214;-67
2023/05/26 06:17:21;;;;;;;7.80;4.00;;;20.40;99.90;;;21.05;nan;101497.06;5052086;28;20635;-67
2023/05/26 06:19:48;;;;;;;3.43;2.83;;;20.60;99.90;;;21.35;nan;101499.22;5033563;28;21316;-65
2023/05/26 06:22:15;;;;;;;6.13;3.80;;;20.90;99.60;;;21.58;nan;101500.28;5026985;28;20644;-67
2023/05/26 06:24:42;;;;;;;3.80;3.40;;;21.20;99.20;;;22.09;nan;101512.59;5028608;28;20616;-66
2023/05/26 06:27:09;;;;;;;6.33;5.07;;;21.60;98.70;;;22.59;nan;101493.88;5014599;28;20810;-66
2023/05/26 06:29:36;;;;;;;4.67;3.60;;;22.20;97.70;;;22.89;nan;101503.81;5019821;28;20667;-67
2023/05/26 06:32:03;;;;;;;5.00;4.60;;;22.50;96.70;;;23.40;nan;101507.88;5016096;28;20644;-68
2023/05/26 06:34:31;;;;;;;5.70;4.73;;;23.00;95.70;;;24.10;nan;101500.72;5014097;28;20644;-68
2023/05/26 06:36:58;;;;;;;8.40;4.90;;;23.60;94.20;;;24.18;nan;101511.31;5022048;28;20613;-66
2023/05/26 06:39:25;;;;;;;6.53;4.47;;;23.80;93.00;;;24.54;nan;101504.38;5012571;28;20661;-67
2023/05/26 06:41:53;;;;;;;3.27;2.97;;;24.10;92.40;;;25.15;nan;101510.50;5025601;28;20636;-66
2023/05/26 06:44:20;;;;;;;3.97;3.47;;;24.70;91.40;;;25.59;nan;101508.63;5020504;28;21042;-68
2023/05/26 06:46:47;;;;;;;6.50;4.60;;;25.20;90.20;;;26.11;nan;101511.94;5031914;28;21463;-66
2023/05/26 06:49:14;;;;;;;6.67;4.40;;;25.70;88.10;;;26.48;nan;101510.84;5029621;28;20656;-68
2023/05/26 06:51:41;;;;;;;8.47;3.93;;;26.00;86.40;;;26.76;nan;101505.56;5051911;28;20639;-66
2023/05/26 06:54:08;;;;;;;6.20;4.97;;;26.50;84.30;;;26.92;nan;101508.75;5036780;28;21196;-67
2023/05/26 06:56:35;;;;;;;5.50;4.67;;;26.80;81.30;;;26.82;nan;101512.81;5031159;28;22079;-66
2023/05/26 06:59:02;;;;;;;6.90;5.60;;;26.60;80.40;;;26.84;nan;101516.13;5018594;28;20687;-69
2023/05/26 07:01:29;;;;;;;5.07;4.60;;;26.60;79.60;;;27.25;nan;101516.19;5039537;28;20636;-67
2023/05/26 07:03:56;;;;;;;6.13;5.10;;;26.80;78.60;;;27.04;nan;101513.56;5051626;28;21174;-66
2023/05/26 07:06:24;;;;;;;4.70;4.20;;;27.00;77.20;;;27.45;nan;101509.91;5052213;28;20667;-66
2023/05/26 07:08:55;;;;;;;7.30;5.30;;;27.10;77.20;;;28.01;nan;101518.63;5020542;28;20661;-65
2023/05/26 07:11:23;;;;;;;8.43;3.73;;;27.60;75.40;;;28.35;nan;101514.94;5031282;28;20616;-66
2023/05/26 07:13:52;;;;;;;5.03;3.60;;;27.90;74.40;;;28.72;nan;101519.75;5021236;28;20996;-67
2023/05/26 07:16:20;;;;;;;5.17;4.50;;;28.40;72.50;;;28.80;nan;101514.16;5031897;28;20648;-67
2023/05/26 07:18:47;;;;;;;6.70;5.47;;;28.70;71.00;;;28.87;nan;101512.31;5027108;28;20631;-67
2023/05/26 07:21:15;;;;;;;7.13;5.50;;;28.60;71.10;;;29.54;nan;101511.09;5020949;28;20637;-66
2023/05/26 07:23:43;;;;;;;5.93;4.83;;;29.10;70.00;;;29.86;nan;101511.00;5012334;28;20647;-66
2023/05/26 07:26:10;;;;;;;5.73;5.07;;;29.50;68.80;;;29.82;nan;101512.47;5025398;28;20668;-66
2023/05/26 07:28:37;;;;;;;4.67;4.23;;;29.60;68.10;;;30.17;nan;101520.13;5029565;28;21231;-67
2023/05/26 07:31:04;;;;;;;6.37;5.77;;;29.90;67.90;;;30.01;nan;101526.84;5035579;28;20610;-71
2023/05/26 07:33:32;;;;;;;6.57;5.90;;;29.80;65.90;;;29.86;nan;101520.91;5022818;28;20624;-67
2023/05/26 07:35:59;;;;;;;5.03;4.60;;;29.80;65.60;;;29.63;nan;101516.03;5010009;28;20649;-68
2023/05/26 07:38:26;;;;;;;5.20;4.77;;;29.50;65.50;;;29.55;nan;101507.38;5010032;28;20680;-66
2023/05/26 07:40:54;;;;;;;6.47;3.70;;;29.40;66.00;;;30.04;nan;101523.72;5011018;28;20668;-66
2023/05/26 07:43:21;;;;;;;5.33;4.83;;;29.70;65.60;;;29.82;nan;101519.69;5019442;28;20633;-66
2023/05/26 07:45:48;;;;;;;6.67;5.17;;;29.90;64.10;;;28.94;nan;101510.41;5011354;28;20642;-66
2023/05/26 07:48:15;;;;;;;4.70;4.23;;;29.20;64.80;;;29.41;nan;101514.66;5010317;28;21370;-67
2023/05/26 07:50:43;;;;;;;5.00;4.50;;;29.20;65.10;;;29.67;nan;101513.75;5015586;28;20671;-67
2023/05/26 07:53:10;;;;;;;4.47;3.80;;;29.40;64.70;;;30.04;nan;101512.97;5032281;28;20621;-68
2023/05/26 07:55:37;;;;;;;3.63;3.10;;;29.90;64.20;;;30.34;nan;101516.72;5029533;28;21040;-70
2023/05/26 07:58:05;;;;;;;5.23;4.73;;;30.30;63.20;;;30.87;nan;101524.38;5030980;28;20632;-71
2023/05/26 08:00:32;;;;;;;6.17;4.90;;;30.70;62.90;;;31.27;nan;101509.44;5015050;28;20660;-71
2023/05/26 08:02:59;;;;;;;6.63;4.50;;;31.30;61.50;;;31.25;nan;101520.47;5018547;28;20636;-66
2023/05/26 08:05:26;;;;;;;6.00;3.10;;;31.30;60.90;;;30.29;nan;101521.91;5037575;28;20646;-68
2023/05/26 08:07:54;;;;;;;5.43;4.90;;;30.50;61.40;;;30.92;nan;101519.16;5035458;28;21331;-67
2023/05/26 08:10:21;;;;;;;4.53;3.97;;;30.80;61.50;;;31.40;nan;101514.72;5013745;28;20653;-68
2023/05/26 08:12:50;;;;;;;5.20;4.33;;;31.40;60.80;;;31.80;nan;101518.56;5011882;28;20634;-68
2023/05/26 08:15:20;;;;;;;5.93;4.37;;;31.90;59.50;;;31.70;nan;101507.50;5031122;28;20663;-67
2023/05/26 08:17:48;;;;;;;5.07;4.57;;;31.90;59.10;;;31.39;nan;101518.44;5022743;28;21187;-67
2023/05/26 08:20:15;;;;;;;4.63;4.23;;;31.50;59.90;;;31.39;nan;101504.97;5026800;28;20657;-66
2023/05/26 08:22:43;;;;;;;4.33;3.93;;;31.40;59.70;;;31.89;nan;101511.81;5010263;28;21030;-68
2023/05/26 08:25:10;;;;;;;3.93;3.63;;;31.90;59.50;;;32.46;nan;101517.59;5025172;28;20648;-67
2023/05/26 08:27:37;;;;;;;5.60;5.03;;;32.40;58.50;;;32.44;nan;101508.91;5026151;28;21310;-67
2023/05/26 08:30:06;;;;;;;5.10;4.70;;;32.60;57.20;;;32.46;nan;101515.72;5013089;28;20661;-67
2023/05/26 08:32:34;;;;;;;7.10;4.90;;;32.60;57.20;;;32.64;nan;101506.75;5019354;28;20638;-67
2023/05/26 08:35:01;;;;;;;5.23;4.77;;;32.80;56.90;;;33.20;nan;101516.97;5025777;28;20615;-66
2023/05/26 08:37:28;;;;;;;3.83;3.43;;;33.40;56.00;;;33.55;nan;101509.63;5019533;28;20645;-70
2023/05/26 08:39:57;;;;;;;4.80;4.40;;;33.70;55.10;;;33.62;nan;101499.47;5009479;28;20669;-67
2023/05/26 08:42:31;;;;;;;5.30;4.80;;;33.90;54.80;;;33.17;nan;101493.94;5012834;28;20621;-67
2023/05/26 08:45:02;;;;;;;5.60;4.83;;;33.50;54.70;;;32.60;nan;101510.97;5009657;28;20670;-68
2023/05/26 08:47:34;;;;;;;3.03;2.80;;;33.00;54.90;;;32.63;nan;101516.72;5020835;28;20660;-67
2023/05/26 08:50:06;;;;;;;3.93;3.73;;;32.90;55.10;;;33.01;nan;101508.16;5023145;28;20661;-68
2023/05/26 08:52:33;;;;;;;4.27;3.87;;;33.30;54.80;;;33.27;nan;101509.53;5010747;28;20833;-68
2023/05/26 08:55:00;;;;;;;5.00;4.60;;;33.50;54.40;;;33.31;nan;101499.88;5013733;28;20630;-69
2023/05/26 08:57:32;;;;;;;5.40;4.90;;;33.50;53.90;;;33.34;nan;101507.53;5028122;28;20636;-70
2023/05/26 09:00:00;;;;;;;4.60;4.20;;;33.50;53.90;;;33.81;nan;101508.22;5020202;28;20665;-68
2023/05/26 09:02:27;;;;;;;4.07;3.77;;;33.80;53.50;;;34.48;nan;101515.38;5010571;28;21204;-67
2023/05/26 09:04:54;;;;;;;4.70;4.40;;;34.50;53.00;;;34.36;nan;101511.94;5014601;28;20613;-69
2023/05/26 09:07:21;;;;;;;4.57;4.13;;;34.60;52.50;;;33.65;nan;101495.47;5024963;28;20681;-67
2023/05/26 09:09:52;;;;;;;5.10;4.30;;;34.00;52.60;;;33.17;nan;101504.75;5010709;28;21294;-66
2023/05/26 09:12:19;;;;;;;5.00;4.60;;;33.50;52.80;;;33.52;nan;101510.13;5008716;28;20975;-67
2023/05/26 09:14:46;;;;;;;4.83;4.43;;;33.60;52.90;;;33.57;nan;101507.50;5010256;28;21133;-70
2023/05/26 09:17:14;;;;;;;5.23;4.63;;;33.70;52.80;;;33.44;nan;101511.25;5010812;28;20634;-68
2023/05/26 09:19:41;;;;;;;5.80;3.70;;;33.50;53.00;;;33.86;nan;101511.03;5020515;28;21252;-67
2023/05/26 09:22:10;;;;;;;5.33;4.80;;;33.80;53.10;;;34.56;nan;101498.78;5008392;28;20625;-67
2023/05/26 09:24:47;;;;;;;6.43;4.30;;;34.40;52.50;;;34.91;nan;101520.16;5022315;28;20600;-68
2023/05/26 09:27:22;;;;;;;5.03;3.80;;;35.00;51.60;;;34.19;nan;101500.28;5015387;28;20677;-68
2023/05/26 09:29:54;;;;;;;4.70;4.30;;;34.40;51.80;;;33.68;nan;101513.91;5010128;28;20661;-66
2023/05/26 09:32:29;;;;;;;4.33;3.60;;;33.90;52.20;;;34.13;nan;101514.81;5012182;28;20633;-70
2023/05/26 09:34:59;;;;;;;6.40;4.10;;;34.30;51.80;;;33.98;nan;101514.50;5022485;28;20648;-68
2023/05/26 09:37:29;;;;;;;3.50;3.20;;;34.30;51.80;;;34.19;nan;101508.41;5020967;28;20648;-67
2023/05/26 09:40:17;;;;;;;5.17;4.70;;;34.40;51.70;;;34.04;nan;101513.56;5027767;28;20953;-68
2023/05/26 09:42:52;;;;;;;4.20;3.90;;;34.40;51.50;;;34.44;nan;101506.13;5020891;28;20621;-67
2023/05/26 09:45:20;;;;;;;6.20;3.87;;;34.60;51.60;;;33.56;nan;101511.28;5016361;28;21176;-67
2023/05/26 09:47:56;;;;;;;4.80;4.17;;;33.90;51.50;;;33.80;nan;101507.41;5010695;28;20692;-68
2023/05/26 09:50:24;;;;;;;6.93;3.80;;;34.00;51.70;;;34.13;nan;101504.81;5010255;28;20688;-68
2023/05/26 09:52:51;;;;;;;4.23;3.83;;;34.30;51.80;;;34.48;nan;101498.34;5013903;28;21286;-69
2023/05/26 09:55:18;;;;;;;3.70;3.43;;;34.40;51.30;;;34.68;nan;101493.25;5014469;28;20629;-71
2023/05/26 09:57:46;;;;;;;4.53;3.73;;;34.60;51.20;;;34.49;nan;101500.78;5012067;28;20641;-67
2023/05/26 10:00:18;;;;;;;7.93;4.50;;;34.40;51.30;;;34.08;nan;101493.03;5013098;28;20680;-68
2023/05/26 10:02:46;;;;;;;3.53;3.23;;;34.10;51.40;;;32.92;nan;101488.75;5026909;28;20640;-68
2023/05/26 10:05:17;;;;;;;3.00;2.80;;;32.80;52.20;;;32.03;nan;101483.59;5024091;28;20689;-69
2023/05/26 10:07:45;;;;;;;5.93;3.60;;;31.90;52.90;;;31.01;nan;101477.38;5015621;28;20664;-66
2023/05/26 10:10:13;;;;;;;4.67;3.40;;;30.70;54.40;;;29.88;nan;101478.47;5018140;28;21268;-68
2023/05/26 10:12:42;;;;;;;9.00;3.10;;;29.60;55.90;;;29.89;nan;101493.59;5009455;28;21173;-67
2023/05/26 10:15:10;;;;;;;3.77;3.47;;;29.20;56.80;;;28.98;nan;101478.59;5025878;28;20623;-67
2023/05/26 10:17:38;;;;;;;5.97;4.43;;;28.50;57.30;;;28.39;nan;101476.75;5034240;28;20650;-71
2023/05/26 10:20:07;;;;;;;5.60;4.00;;;27.90;57.70;;;27.79;nan;101486.75;5029551;28;20664;-67
2023/05/26 10:22:50;;;;;;;5.50;3.80;;;27.30;58.40;;;27.42;nan;101478.16;5025360;28;20636;-68
2023/05/26 10:25:51;;;;;;;5.43;3.77;;;26.90;59.40;;;27.12;nan;101486.63;5032910;28;20666;-68
2023/05/26 10:28:34;;;;;;;4.53;3.60;;;26.60;60.40;;;26.75;nan;101479.78;5009940;28;20717;-68